sensor_id;sensor_type;location;lat;lon;timestamp;P1;durP1;ratioP1;P2;durP2;ratioP2
58101;SDS011;52034;51.926;6.320;2024-01-10T00:00:42;10.38;;;9.18;;
58101;SDS011;52034;51.926;6.320;2024-01-10T00:01:43;11.10;;;8.88;;
58101;SDS011;52034;51.926;6.320;2024-01-10T00:02:45;10.27;;;9.27;;
58101;SDS011;52034;51.926;6.320;2024-01-10T00:03:47;10.75;;;9.25;;
58101;SDS011;52034;51.926;6.320;2024-01-10T00:05:50;9.80;;;8.85;;
58101;SDS011;52034;51.926;6.320;2024-01-10T00:06:52;10.77;;;9.68;;
58101;SDS011;52034;51.926;6.320;2024-01-10T00:07:53;11.43;;;9.00;;
58101;SDS011;52034;51.926;6.320;2024-01-10T00:08:55;10.77;;;8.80;;
58101;SDS011;52034;51.926;6.320;2024-01-10T00:09:57;10.25;;;9.20;;
58101;SDS011;52034;51.926;6.320;2024-01-10T00:11:01;10.52;;;9.00;;
58101;SDS011;52034;51.926;6.320;2024-01-10T00:12:03;10.32;;;9.27;;
58101;SDS011;52034;51.926;6.320;2024-01-10T00:13:04;10.60;;;9.50;;
58101;SDS011;52034;51.926;6.320;2024-01-10T00:15:08;9.82;;;8.93;;
58101;SDS011;52034;51.926;6.320;2024-01-10T00:16:13;9.82;;;8.82;;
58101;SDS011;52034;51.926;6.320;2024-01-10T00:17:16;12.00;;;9.18;;
58101;SDS011;52034;51.926;6.320;2024-01-10T00:18:17;10.48;;;9.23;;
58101;SDS011;52034;51.926;6.320;2024-01-10T00:19:19;11.23;;;9.13;;
58101;SDS011;52034;51.926;6.320;2024-01-10T00:21:22;10.10;;;9.10;;
58101;SDS011;52034;51.926;6.320;2024-01-10T00:22:24;10.43;;;9.38;;
58101;SDS011;52034;51.926;6.320;2024-01-10T00:24:27;10.43;;;9.43;;
58101;SDS011;52034;51.926;6.320;2024-01-10T00:25:29;11.50;;;8.77;;
58101;SDS011;52034;51.926;6.320;2024-01-10T00:27:32;10.02;;;8.80;;
58101;SDS011;52034;51.926;6.320;2024-01-10T00:28:35;9.57;;;8.57;;
58101;SDS011;52034;51.926;6.320;2024-01-10T00:30:38;11.23;;;9.27;;
58101;SDS011;52034;51.926;6.320;2024-01-10T00:31:40;10.20;;;9.20;;
58101;SDS011;52034;51.926;6.320;2024-01-10T00:33:43;10.75;;;9.65;;
58101;SDS011;52034;51.926;6.320;2024-01-10T00:34:45;10.60;;;9.55;;
58101;SDS011;52034;51.926;6.320;2024-01-10T00:36:48;11.23;;;9.80;;
58101;SDS011;52034;51.926;6.320;2024-01-10T00:37:50;11.77;;;9.60;;
58101;SDS011;52034;51.926;6.320;2024-01-10T00:39:53;10.30;;;9.30;;
58101;SDS011;52034;51.926;6.320;2024-01-10T00:42:58;11.60;;;9.33;;
58101;SDS011;52034;51.926;6.320;2024-01-10T00:44:00;12.05;;;10.02;;
58101;SDS011;52034;51.926;6.320;2024-01-10T00:45:02;10.90;;;9.80;;
58101;SDS011;52034;51.926;6.320;2024-01-10T00:46:04;9.80;;;8.80;;
58101;SDS011;52034;51.926;6.320;2024-01-10T00:47:05;10.40;;;9.18;;
58101;SDS011;52034;51.926;6.320;2024-01-10T00:48:07;10.73;;;9.63;;
58101;SDS011;52034;51.926;6.320;2024-01-10T00:49:10;10.07;;;9.07;;
58101;SDS011;52034;51.926;6.320;2024-01-10T00:50:11;10.70;;;9.60;;
58101;SDS011;52034;51.926;6.320;2024-01-10T00:51:13;10.07;;;8.95;;
58101;SDS011;52034;51.926;6.320;2024-01-10T00:52:15;11.00;;;9.70;;
58101;SDS011;52034;51.926;6.320;2024-01-10T00:54:18;10.38;;;9.20;;
58101;SDS011;52034;51.926;6.320;2024-01-10T00:56:22;11.23;;;9.70;;
58101;SDS011;52034;51.926;6.320;2024-01-10T00:57:26;11.63;;;9.48;;
58101;SDS011;52034;51.926;6.320;2024-01-10T00:59:29;10.47;;;9.37;;
58101;SDS011;52034;51.926;6.320;2024-01-10T01:00:31;10.85;;;9.77;;
58101;SDS011;52034;51.926;6.320;2024-01-10T01:01:33;10.82;;;9.82;;
58101;SDS011;52034;51.926;6.320;2024-01-10T01:03:36;11.80;;;9.98;;
58101;SDS011;52034;51.926;6.320;2024-01-10T01:04:39;10.48;;;9.40;;
58101;SDS011;52034;51.926;6.320;2024-01-10T01:05:41;10.90;;;9.80;;
58101;SDS011;52034;51.926;6.320;2024-01-10T01:06:42;11.25;;;9.52;;
58101;SDS011;52034;51.926;6.320;2024-01-10T01:07:44;11.27;;;9.43;;
58101;SDS011;52034;51.926;6.320;2024-01-10T01:08:45;11.23;;;10.02;;
58101;SDS011;52034;51.926;6.320;2024-01-10T01:09:47;10.23;;;9.18;;
58101;SDS011;52034;51.926;6.320;2024-01-10T01:11:50;11.75;;;9.38;;
58101;SDS011;52034;51.926;6.320;2024-01-10T01:12:52;11.05;;;9.85;;
58101;SDS011;52034;51.926;6.320;2024-01-10T01:13:54;10.95;;;9.48;;
58101;SDS011;52034;51.926;6.320;2024-01-10T01:15:57;12.60;;;10.35;;
58101;SDS011;52034;51.926;6.320;2024-01-10T01:16:59;11.55;;;9.90;;
58101;SDS011;52034;51.926;6.320;2024-01-10T01:18:01;11.68;;;9.40;;
58101;SDS011;52034;51.926;6.320;2024-01-10T01:19:02;10.88;;;9.75;;
58101;SDS011;52034;51.926;6.320;2024-01-10T01:20:04;12.80;;;10.15;;
58101;SDS011;52034;51.926;6.320;2024-01-10T01:21:07;10.93;;;9.73;;
58101;SDS011;52034;51.926;6.320;2024-01-10T01:23:10;11.93;;;9.57;;
58101;SDS011;52034;51.926;6.320;2024-01-10T01:25:13;12.93;;;10.00;;
58101;SDS011;52034;51.926;6.320;2024-01-10T01:26:15;10.77;;;9.68;;
58101;SDS011;52034;51.926;6.320;2024-01-10T01:27:17;11.25;;;10.10;;
58101;SDS011;52034;51.926;6.320;2024-01-10T01:28:18;11.63;;;10.10;;
58101;SDS011;52034;51.926;6.320;2024-01-10T01:29:20;11.30;;;9.95;;
58101;SDS011;52034;51.926;6.320;2024-01-10T01:30:22;10.63;;;9.52;;
58101;SDS011;52034;51.926;6.320;2024-01-10T01:31:24;11.38;;;10.18;;
58101;SDS011;52034;51.926;6.320;2024-01-10T01:33:27;13.23;;;9.88;;
58101;SDS011;52034;51.926;6.320;2024-01-10T01:34:29;11.13;;;9.88;;
58101;SDS011;52034;51.926;6.320;2024-01-10T01:36:32;11.82;;;10.32;;
58101;SDS011;52034;51.926;6.320;2024-01-10T01:37:35;12.35;;;9.50;;
58101;SDS011;52034;51.926;6.320;2024-01-10T01:39:38;11.10;;;10.00;;
58101;SDS011;52034;51.926;6.320;2024-01-10T01:40:40;10.93;;;9.73;;
58101;SDS011;52034;51.926;6.320;2024-01-10T01:41:42;12.32;;;9.80;;
58101;SDS011;52034;51.926;6.320;2024-01-10T01:44:48;11.88;;;9.90;;
58101;SDS011;52034;51.926;6.320;2024-01-10T01:45:51;11.07;;;9.70;;
58101;SDS011;52034;51.926;6.320;2024-01-10T01:46:55;12.38;;;9.73;;
58101;SDS011;52034;51.926;6.320;2024-01-10T01:47:56;10.75;;;9.43;;
58101;SDS011;52034;51.926;6.320;2024-01-10T01:48:59;11.90;;;9.93;;
58101;SDS011;52034;51.926;6.320;2024-01-10T01:50:02;10.70;;;9.57;;
58101;SDS011;52034;51.926;6.320;2024-01-10T01:51:05;12.68;;;9.93;;
58101;SDS011;52034;51.926;6.320;2024-01-10T01:52:08;11.23;;;10.07;;
58101;SDS011;52034;51.926;6.320;2024-01-10T01:53:12;12.88;;;9.68;;
58101;SDS011;52034;51.926;6.320;2024-01-10T01:54:15;10.45;;;9.43;;
58101;SDS011;52034;51.926;6.320;2024-01-10T01:56:18;10.73;;;9.63;;
58101;SDS011;52034;51.926;6.320;2024-01-10T01:57:20;10.90;;;9.63;;
58101;SDS011;52034;51.926;6.320;2024-01-10T01:59:24;11.85;;;9.57;;
58101;SDS011;52034;51.926;6.320;2024-01-10T02:00:26;10.80;;;9.65;;
58101;SDS011;52034;51.926;6.320;2024-01-10T02:01:27;10.90;;;9.68;;
58101;SDS011;52034;51.926;6.320;2024-01-10T02:02:30;12.13;;;10.18;;
58101;SDS011;52034;51.926;6.320;2024-01-10T02:03:33;12.40;;;10.57;;
58101;SDS011;52034;51.926;6.320;2024-01-10T02:04:36;10.60;;;9.50;;
58101;SDS011;52034;51.926;6.320;2024-01-10T02:05:37;10.77;;;9.60;;
58101;SDS011;52034;51.926;6.320;2024-01-10T02:06:39;10.80;;;9.60;;
58101;SDS011;52034;51.926;6.320;2024-01-10T02:07:41;12.38;;;9.77;;
58101;SDS011;52034;51.926;6.320;2024-01-10T02:08:44;10.85;;;9.05;;
58101;SDS011;52034;51.926;6.320;2024-01-10T02:09:45;10.75;;;9.50;;
58101;SDS011;52034;51.926;6.320;2024-01-10T02:10:47;12.55;;;9.85;;
58101;SDS011;52034;51.926;6.320;2024-01-10T02:12:50;12.85;;;10.00;;
58101;SDS011;52034;51.926;6.320;2024-01-10T02:14:56;10.95;;;9.57;;
58101;SDS011;52034;51.926;6.320;2024-01-10T02:15:58;10.95;;;9.85;;
58101;SDS011;52034;51.926;6.320;2024-01-10T02:17:01;12.68;;;10.18;;
58101;SDS011;52034;51.926;6.320;2024-01-10T02:19:17;10.75;;;9.65;;
58101;SDS011;52034;51.926;6.320;2024-01-10T02:20:25;11.77;;;10.25;;
58101;SDS011;52034;51.926;6.320;2024-01-10T02:21:27;11.15;;;9.45;;
58101;SDS011;52034;51.926;6.320;2024-01-10T02:23:30;11.80;;;9.63;;
58101;SDS011;52034;51.926;6.320;2024-01-10T02:24:32;11.15;;;9.80;;
58101;SDS011;52034;51.926;6.320;2024-01-10T02:27:37;11.27;;;9.80;;
58101;SDS011;52034;51.926;6.320;2024-01-10T02:28:39;12.13;;;10.25;;
58101;SDS011;52034;51.926;6.320;2024-01-10T02:29:41;11.25;;;9.63;;
58101;SDS011;52034;51.926;6.320;2024-01-10T02:31:44;11.73;;;10.40;;
58101;SDS011;52034;51.926;6.320;2024-01-10T02:32:46;12.27;;;10.45;;
58101;SDS011;52034;51.926;6.320;2024-01-10T02:33:48;10.93;;;9.73;;
58101;SDS011;52034;51.926;6.320;2024-01-10T02:34:49;12.18;;;10.52;;
58101;SDS011;52034;51.926;6.320;2024-01-10T02:35:51;11.93;;;9.98;;
58101;SDS011;52034;51.926;6.320;2024-01-10T02:37:54;14.00;;;10.67;;
58101;SDS011;52034;51.926;6.320;2024-01-10T02:38:56;11.10;;;9.88;;
58101;SDS011;52034;51.926;6.320;2024-01-10T02:40:59;11.18;;;10.13;;
58101;SDS011;52034;51.926;6.320;2024-01-10T02:42:04;10.35;;;9.25;;
58101;SDS011;52034;51.926;6.320;2024-01-10T02:43:06;12.45;;;10.05;;
58101;SDS011;52034;51.926;6.320;2024-01-10T02:44:09;12.10;;;9.73;;
58101;SDS011;52034;51.926;6.320;2024-01-10T02:46:12;10.98;;;9.77;;
58101;SDS011;52034;51.926;6.320;2024-01-10T02:48:15;11.23;;;10.02;;
58101;SDS011;52034;51.926;6.320;2024-01-10T02:49:17;12.15;;;10.05;;
58101;SDS011;52034;51.926;6.320;2024-01-10T02:50:19;11.55;;;9.77;;
58101;SDS011;52034;51.926;6.320;2024-01-10T02:51:21;10.50;;;9.45;;
58101;SDS011;52034;51.926;6.320;2024-01-10T02:52:23;11.50;;;10.18;;
58101;SDS011;52034;51.926;6.320;2024-01-10T02:54:26;12.40;;;9.98;;
58101;SDS011;52034;51.926;6.320;2024-01-10T02:56:29;16.00;;;10.50;;
58101;SDS011;52034;51.926;6.320;2024-01-10T02:57:31;10.35;;;9.25;;
58101;SDS011;52034;51.926;6.320;2024-01-10T02:59:35;12.85;;;10.13;;
58101;SDS011;52034;51.926;6.320;2024-01-10T03:00:37;11.45;;;10.27;;
58101;SDS011;52034;51.926;6.320;2024-01-10T03:01:39;11.57;;;9.98;;
58101;SDS011;52034;51.926;6.320;2024-01-10T03:02:43;13.25;;;10.05;;
58101;SDS011;52034;51.926;6.320;2024-01-10T03:04:47;12.73;;;10.35;;
58101;SDS011;52034;51.926;6.320;2024-01-10T03:05:49;11.38;;;9.68;;
58101;SDS011;52034;51.926;6.320;2024-01-10T03:06:51;12.93;;;9.90;;
58101;SDS011;52034;51.926;6.320;2024-01-10T03:07:53;13.05;;;10.20;;
58101;SDS011;52034;51.926;6.320;2024-01-10T03:08:54;13.30;;;10.38;;
58101;SDS011;52034;51.926;6.320;2024-01-10T03:09:57;11.48;;;9.95;;
58101;SDS011;52034;51.926;6.320;2024-01-10T03:12:00;11.98;;;10.05;;
58101;SDS011;52034;51.926;6.320;2024-01-10T03:13:02;12.80;;;9.73;;
58101;SDS011;52034;51.926;6.320;2024-01-10T03:14:07;12.57;;;10.00;;
58101;SDS011;52034;51.926;6.320;2024-01-10T03:15:10;12.38;;;10.23;;
58101;SDS011;52034;51.926;6.320;2024-01-10T03:17:14;10.95;;;9.45;;
58101;SDS011;52034;51.926;6.320;2024-01-10T03:18:15;14.23;;;10.50;;
58101;SDS011;52034;51.926;6.320;2024-01-10T03:19:17;11.55;;;9.85;;
58101;SDS011;52034;51.926;6.320;2024-01-10T03:20:19;11.40;;;9.75;;
58101;SDS011;52034;51.926;6.320;2024-01-10T03:22:26;12.05;;;10.32;;
58101;SDS011;52034;51.926;6.320;2024-01-10T03:23:27;10.82;;;9.73;;
58101;SDS011;52034;51.926;6.320;2024-01-10T03:25:30;12.23;;;10.80;;
58101;SDS011;52034;51.926;6.320;2024-01-10T03:26:32;11.35;;;10.15;;
58101;SDS011;52034;51.926;6.320;2024-01-10T03:28:35;12.40;;;9.88;;
58101;SDS011;52034;51.926;6.320;2024-01-10T03:30:39;11.52;;;10.27;;
58101;SDS011;52034;51.926;6.320;2024-01-10T03:32:42;13.15;;;10.77;;
58101;SDS011;52034;51.926;6.320;2024-01-10T03:33:44;12.48;;;10.32;;
58101;SDS011;52034;51.926;6.320;2024-01-10T03:34:46;16.30;;;11.52;;
58101;SDS011;52034;51.926;6.320;2024-01-10T03:35:47;11.40;;;10.20;;
58101;SDS011;52034;51.926;6.320;2024-01-10T03:36:49;12.93;;;11.05;;
58101;SDS011;52034;51.926;6.320;2024-01-10T03:38:52;15.55;;;10.98;;
58101;SDS011;52034;51.926;6.320;2024-01-10T03:40:55;12.50;;;10.18;;
58101;SDS011;52034;51.926;6.320;2024-01-10T03:41:57;12.00;;;10.80;;
58101;SDS011;52034;51.926;6.320;2024-01-10T03:44:00;14.15;;;10.70;;
58101;SDS011;52034;51.926;6.320;2024-01-10T03:45:03;11.68;;;10.48;;
58101;SDS011;52034;51.926;6.320;2024-01-10T03:46:06;10.85;;;9.68;;
58101;SDS011;52034;51.926;6.320;2024-01-10T03:47:07;13.18;;;11.00;;
58101;SDS011;52034;51.926;6.320;2024-01-10T03:48:09;12.55;;;10.75;;
58101;SDS011;52034;51.926;6.320;2024-01-10T03:49:11;12.38;;;10.70;;
58101;SDS011;52034;51.926;6.320;2024-01-10T03:50:13;12.90;;;10.80;;
58101;SDS011;52034;51.926;6.320;2024-01-10T03:51:15;13.85;;;10.95;;
58101;SDS011;52034;51.926;6.320;2024-01-10T03:52:18;13.23;;;10.85;;
58101;SDS011;52034;51.926;6.320;2024-01-10T03:53:20;12.93;;;10.40;;
58101;SDS011;52034;51.926;6.320;2024-01-10T03:54:22;11.27;;;10.05;;
58101;SDS011;52034;51.926;6.320;2024-01-10T03:56:25;12.43;;;10.38;;
58101;SDS011;52034;51.926;6.320;2024-01-10T03:57:28;10.93;;;9.82;;
58101;SDS011;52034;51.926;6.320;2024-01-10T03:59:31;12.60;;;10.40;;
58101;SDS011;52034;51.926;6.320;2024-01-10T04:00:34;12.35;;;10.25;;
58101;SDS011;52034;51.926;6.320;2024-01-10T04:01:35;12.07;;;10.63;;
58101;SDS011;52034;51.926;6.320;2024-01-10T04:02:40;12.43;;;10.55;;
58101;SDS011;52034;51.926;6.320;2024-01-10T04:03:42;13.15;;;10.15;;
58101;SDS011;52034;51.926;6.320;2024-01-10T04:04:44;12.82;;;10.93;;
58101;SDS011;52034;51.926;6.320;2024-01-10T04:06:47;14.43;;;11.38;;
58101;SDS011;52034;51.926;6.320;2024-01-10T04:08:50;14.23;;;10.35;;
58101;SDS011;52034;51.926;6.320;2024-01-10T04:10:54;12.60;;;10.65;;
58101;SDS011;52034;51.926;6.320;2024-01-10T04:11:55;12.45;;;10.90;;
58101;SDS011;52034;51.926;6.320;2024-01-10T04:13:59;13.45;;;11.10;;
58101;SDS011;52034;51.926;6.320;2024-01-10T04:16:02;12.50;;;10.97;;
58101;SDS011;52034;51.926;6.320;2024-01-10T04:19:08;13.57;;;11.02;;
58101;SDS011;52034;51.926;6.320;2024-01-10T04:20:10;11.60;;;10.40;;
58101;SDS011;52034;51.926;6.320;2024-01-10T04:21:12;12.20;;;10.90;;
58101;SDS011;52034;51.926;6.320;2024-01-10T04:22:14;14.15;;;10.55;;
58101;SDS011;52034;51.926;6.320;2024-01-10T04:23:15;14.23;;;10.75;;
58101;SDS011;52034;51.926;6.320;2024-01-10T04:24:17;14.57;;;11.27;;
58101;SDS011;52034;51.926;6.320;2024-01-10T04:26:20;13.27;;;11.52;;
58101;SDS011;52034;51.926;6.320;2024-01-10T04:27:22;13.70;;;10.82;;
58101;SDS011;52034;51.926;6.320;2024-01-10T04:29:25;14.00;;;10.85;;
58101;SDS011;52034;51.926;6.320;2024-01-10T04:31:28;14.45;;;11.02;;
58101;SDS011;52034;51.926;6.320;2024-01-10T04:33:32;13.40;;;11.15;;
58101;SDS011;52034;51.926;6.320;2024-01-10T04:34:34;13.15;;;10.25;;
58101;SDS011;52034;51.926;6.320;2024-01-10T04:35:36;12.57;;;10.57;;
58101;SDS011;52034;51.926;6.320;2024-01-10T04:37:39;13.75;;;10.80;;
58101;SDS011;52034;51.926;6.320;2024-01-10T04:39:42;13.13;;;10.73;;
58101;SDS011;52034;51.926;6.320;2024-01-10T04:40:44;12.88;;;11.05;;
58101;SDS011;52034;51.926;6.320;2024-01-10T04:42:47;14.55;;;11.13;;
58101;SDS011;52034;51.926;6.320;2024-01-10T04:43:49;14.13;;;10.98;;
58101;SDS011;52034;51.926;6.320;2024-01-10T04:44:51;12.80;;;11.05;;
58101;SDS011;52034;51.926;6.320;2024-01-10T04:45:53;12.20;;;10.60;;
58101;SDS011;52034;51.926;6.320;2024-01-10T04:47:56;14.00;;;11.15;;
58101;SDS011;52034;51.926;6.320;2024-01-10T04:49:59;13.40;;;11.27;;
58101;SDS011;52034;51.926;6.320;2024-01-10T04:51:01;11.90;;;10.57;;
58101;SDS011;52034;51.926;6.320;2024-01-10T04:53:04;12.77;;;11.18;;
58101;SDS011;52034;51.926;6.320;2024-01-10T04:54:06;14.30;;;11.15;;
58101;SDS011;52034;51.926;6.320;2024-01-10T04:56:10;12.90;;;11.13;;
58101;SDS011;52034;51.926;6.320;2024-01-10T04:57:12;13.02;;;11.52;;
58101;SDS011;52034;51.926;6.320;2024-01-10T04:58:13;12.93;;;10.90;;
58101;SDS011;52034;51.926;6.320;2024-01-10T04:59:15;13.85;;;10.93;;
58101;SDS011;52034;51.926;6.320;2024-01-10T05:00:17;12.88;;;10.77;;
58101;SDS011;52034;51.926;6.320;2024-01-10T05:01:18;14.55;;;11.02;;
58101;SDS011;52034;51.926;6.320;2024-01-10T05:02:21;12.40;;;11.10;;
58101;SDS011;52034;51.926;6.320;2024-01-10T05:03:22;14.13;;;11.20;;
58101;SDS011;52034;51.926;6.320;2024-01-10T05:04:24;14.68;;;10.90;;
58101;SDS011;52034;51.926;6.320;2024-01-10T05:06:28;12.10;;;10.65;;
58101;SDS011;52034;51.926;6.320;2024-01-10T05:07:30;11.88;;;10.65;;
58101;SDS011;52034;51.926;6.320;2024-01-10T05:09:33;12.90;;;10.82;;
58101;SDS011;52034;51.926;6.320;2024-01-10T05:10:35;13.45;;;10.73;;
58101;SDS011;52034;51.926;6.320;2024-01-10T05:11:37;13.65;;;11.20;;
58101;SDS011;52034;51.926;6.320;2024-01-10T05:12:40;13.70;;;10.88;;
58101;SDS011;52034;51.926;6.320;2024-01-10T05:14:44;15.23;;;11.40;;
58101;SDS011;52034;51.926;6.320;2024-01-10T05:16:47;13.68;;;11.43;;
58101;SDS011;52034;51.926;6.320;2024-01-10T05:17:49;14.45;;;11.25;;
58101;SDS011;52034;51.926;6.320;2024-01-10T05:18:51;13.98;;;11.13;;
58101;SDS011;52034;51.926;6.320;2024-01-10T05:19:53;12.93;;;11.40;;
58101;SDS011;52034;51.926;6.320;2024-01-10T05:20:55;13.00;;;11.05;;
58101;SDS011;52034;51.926;6.320;2024-01-10T05:21:56;14.65;;;11.32;;
58101;SDS011;52034;51.926;6.320;2024-01-10T05:23:02;12.63;;;11.27;;
58101;SDS011;52034;51.926;6.320;2024-01-10T05:24:03;13.75;;;11.32;;
58101;SDS011;52034;51.926;6.320;2024-01-10T05:25:05;13.65;;;10.88;;
58101;SDS011;52034;51.926;6.320;2024-01-10T05:26:08;12.43;;;11.07;;
58101;SDS011;52034;51.926;6.320;2024-01-10T05:27:10;12.75;;;11.38;;
58101;SDS011;52034;51.926;6.320;2024-01-10T05:28:12;13.45;;;11.15;;
58101;SDS011;52034;51.926;6.320;2024-01-10T05:30:16;13.85;;;11.15;;
58101;SDS011;52034;51.926;6.320;2024-01-10T05:31:17;15.20;;;11.40;;
58101;SDS011;52034;51.926;6.320;2024-01-10T05:32:19;13.07;;;11.55;;
58101;SDS011;52034;51.926;6.320;2024-01-10T05:33:21;14.23;;;11.48;;
58101;SDS011;52034;51.926;6.320;2024-01-10T05:34:23;15.27;;;11.57;;
58101;SDS011;52034;51.926;6.320;2024-01-10T05:36:29;16.23;;;11.90;;
58101;SDS011;52034;51.926;6.320;2024-01-10T05:38:32;12.82;;;11.45;;
58101;SDS011;52034;51.926;6.320;2024-01-10T05:40:35;13.85;;;11.75;;
58101;SDS011;52034;51.926;6.320;2024-01-10T05:41:37;13.80;;;12.00;;
58101;SDS011;52034;51.926;6.320;2024-01-10T05:42:42;12.13;;;10.90;;
58101;SDS011;52034;51.926;6.320;2024-01-10T05:43:44;14.30;;;11.50;;
58101;SDS011;52034;51.926;6.320;2024-01-10T05:44:45;14.15;;;12.02;;
58101;SDS011;52034;51.926;6.320;2024-01-10T05:46:49;16.00;;;12.00;;
58101;SDS011;52034;51.926;6.320;2024-01-10T05:47:51;13.85;;;11.73;;
58101;SDS011;52034;51.926;6.320;2024-01-10T05:48:54;14.13;;;11.88;;
58101;SDS011;52034;51.926;6.320;2024-01-10T05:49:56;14.57;;;11.38;;
58101;SDS011;52034;51.926;6.320;2024-01-10T05:50:58;14.75;;;12.32;;
58101;SDS011;52034;51.926;6.320;2024-01-10T05:52:00;14.63;;;12.10;;
58101;SDS011;52034;51.926;6.320;2024-01-10T05:53:01;13.90;;;11.57;;
58101;SDS011;52034;51.926;6.320;2024-01-10T05:54:03;16.27;;;11.95;;
58101;SDS011;52034;51.926;6.320;2024-01-10T05:56:09;16.85;;;12.90;;
58101;SDS011;52034;51.926;6.320;2024-01-10T05:57:11;13.93;;;11.93;;
58101;SDS011;52034;51.926;6.320;2024-01-10T05:59:15;13.63;;;12.05;;
58101;SDS011;52034;51.926;6.320;2024-01-10T06:00:18;15.98;;;13.15;;
58101;SDS011;52034;51.926;6.320;2024-01-10T06:01:21;15.50;;;12.88;;
58101;SDS011;52034;51.926;6.320;2024-01-10T06:02:23;14.10;;;11.88;;
58101;SDS011;52034;51.926;6.320;2024-01-10T06:03:26;14.30;;;12.45;;
58101;SDS011;52034;51.926;6.320;2024-01-10T06:04:28;14.48;;;12.32;;
58101;SDS011;52034;51.926;6.320;2024-01-10T06:05:31;15.07;;;12.55;;
58101;SDS011;52034;51.926;6.320;2024-01-10T06:06:33;15.27;;;13.30;;
58101;SDS011;52034;51.926;6.320;2024-01-10T06:07:39;16.25;;;12.63;;
58101;SDS011;52034;51.926;6.320;2024-01-10T06:08:44;17.35;;;12.73;;
58101;SDS011;52034;51.926;6.320;2024-01-10T06:09:46;17.27;;;12.93;;
58101;SDS011;52034;51.926;6.320;2024-01-10T06:10:49;15.20;;;12.50;;
58101;SDS011;52034;51.926;6.320;2024-01-10T06:12:52;15.73;;;13.07;;
58101;SDS011;52034;51.926;6.320;2024-01-10T06:14:58;21.73;;;13.38;;
58101;SDS011;52034;51.926;6.320;2024-01-10T06:15:59;18.02;;;13.32;;
58101;SDS011;52034;51.926;6.320;2024-01-10T06:17:01;15.88;;;13.10;;
58101;SDS011;52034;51.926;6.320;2024-01-10T06:18:05;16.58;;;13.32;;
58101;SDS011;52034;51.926;6.320;2024-01-10T06:19:07;17.58;;;13.70;;
58101;SDS011;52034;51.926;6.320;2024-01-10T06:20:09;16.45;;;13.50;;
58101;SDS011;52034;51.926;6.320;2024-01-10T06:21:11;15.82;;;13.00;;
58101;SDS011;52034;51.926;6.320;2024-01-10T06:22:13;18.52;;;14.20;;
58101;SDS011;52034;51.926;6.320;2024-01-10T06:23:14;18.48;;;13.48;;
58101;SDS011;52034;51.926;6.320;2024-01-10T06:24:16;15.18;;;12.52;;
58101;SDS011;52034;51.926;6.320;2024-01-10T06:25:18;17.98;;;13.18;;
58101;SDS011;52034;51.926;6.320;2024-01-10T06:26:20;18.33;;;13.73;;
58101;SDS011;52034;51.926;6.320;2024-01-10T06:27:23;18.45;;;13.90;;
58101;SDS011;52034;51.926;6.320;2024-01-10T06:28:25;17.75;;;13.75;;
58101;SDS011;52034;51.926;6.320;2024-01-10T06:29:27;16.27;;;13.32;;
58101;SDS011;52034;51.926;6.320;2024-01-10T06:30:29;16.63;;;14.05;;
58101;SDS011;52034;51.926;6.320;2024-01-10T06:31:31;17.23;;;13.57;;
58101;SDS011;52034;51.926;6.320;2024-01-10T06:32:32;18.25;;;14.73;;
58101;SDS011;52034;51.926;6.320;2024-01-10T06:33:34;16.40;;;13.93;;
58101;SDS011;52034;51.926;6.320;2024-01-10T06:36:40;17.30;;;14.25;;
58101;SDS011;52034;51.926;6.320;2024-01-10T06:37:41;21.48;;;14.55;;
58101;SDS011;52034;51.926;6.320;2024-01-10T06:38:45;17.15;;;14.15;;
58101;SDS011;52034;51.926;6.320;2024-01-10T06:39:48;20.02;;;14.60;;
58101;SDS011;52034;51.926;6.320;2024-01-10T06:41:52;17.52;;;14.73;;
58101;SDS011;52034;51.926;6.320;2024-01-10T06:42:54;18.98;;;14.55;;
58101;SDS011;52034;51.926;6.320;2024-01-10T06:44:57;19.02;;;13.60;;
58101;SDS011;52034;51.926;6.320;2024-01-10T06:45:59;17.15;;;14.15;;
58101;SDS011;52034;51.926;6.320;2024-01-10T06:48:02;19.45;;;15.02;;
58101;SDS011;52034;51.926;6.320;2024-01-10T06:49:04;16.08;;;14.00;;
58101;SDS011;52034;51.926;6.320;2024-01-10T06:50:06;17.60;;;14.55;;
58101;SDS011;52034;51.926;6.320;2024-01-10T06:51:12;18.77;;;14.80;;
58101;SDS011;52034;51.926;6.320;2024-01-10T06:52:14;21.80;;;15.27;;
58101;SDS011;52034;51.926;6.320;2024-01-10T06:53:16;21.73;;;15.10;;
58101;SDS011;52034;51.926;6.320;2024-01-10T06:54:17;16.98;;;14.73;;
58101;SDS011;52034;51.926;6.320;2024-01-10T06:55:19;19.67;;;14.90;;
58101;SDS011;52034;51.926;6.320;2024-01-10T06:57:22;20.50;;;15.82;;
58101;SDS011;52034;51.926;6.320;2024-01-10T06:59:26;19.42;;;15.35;;
58101;SDS011;52034;51.926;6.320;2024-01-10T07:00:27;21.48;;;15.60;;
58101;SDS011;52034;51.926;6.320;2024-01-10T07:02:30;22.23;;;15.25;;
58101;SDS011;52034;51.926;6.320;2024-01-10T07:03:34;21.17;;;15.50;;
58101;SDS011;52034;51.926;6.320;2024-01-10T07:04:39;19.65;;;14.93;;
58101;SDS011;52034;51.926;6.320;2024-01-10T07:05:40;25.02;;;16.08;;
58101;SDS011;52034;51.926;6.320;2024-01-10T07:07:44;22.35;;;16.55;;
58101;SDS011;52034;51.926;6.320;2024-01-10T07:08:45;25.63;;;17.15;;
58101;SDS011;52034;51.926;6.320;2024-01-10T07:09:49;24.20;;;16.67;;
58101;SDS011;52034;51.926;6.320;2024-01-10T07:11:52;26.42;;;17.50;;
58101;SDS011;52034;51.926;6.320;2024-01-10T07:12:54;24.77;;;17.35;;
58101;SDS011;52034;51.926;6.320;2024-01-10T07:13:56;26.70;;;17.98;;
58101;SDS011;52034;51.926;6.320;2024-01-10T07:14:58;28.48;;;18.17;;
58101;SDS011;52034;51.926;6.320;2024-01-10T07:16:00;27.55;;;18.65;;
58101;SDS011;52034;51.926;6.320;2024-01-10T07:17:03;27.73;;;18.77;;
58101;SDS011;52034;51.926;6.320;2024-01-10T07:18:05;28.58;;;18.67;;
58101;SDS011;52034;51.926;6.320;2024-01-10T07:19:09;25.63;;;18.70;;
58101;SDS011;52034;51.926;6.320;2024-01-10T07:20:14;23.90;;;18.08;;
58101;SDS011;52034;51.926;6.320;2024-01-10T07:21:16;24.55;;;18.38;;
58101;SDS011;52034;51.926;6.320;2024-01-10T07:22:18;21.13;;;16.35;;
58101;SDS011;52034;51.926;6.320;2024-01-10T07:23:20;25.58;;;17.50;;
58101;SDS011;52034;51.926;6.320;2024-01-10T07:24:22;23.35;;;16.88;;
58101;SDS011;52034;51.926;6.320;2024-01-10T07:25:26;21.98;;;16.33;;
58101;SDS011;52034;51.926;6.320;2024-01-10T07:27:29;22.33;;;16.80;;
58101;SDS011;52034;51.926;6.320;2024-01-10T07:28:31;23.55;;;16.63;;
58101;SDS011;52034;51.926;6.320;2024-01-10T07:29:34;20.95;;;15.57;;
58101;SDS011;52034;51.926;6.320;2024-01-10T07:30:36;22.13;;;16.52;;
58101;SDS011;52034;51.926;6.320;2024-01-10T07:31:38;23.48;;;16.35;;
58101;SDS011;52034;51.926;6.320;2024-01-10T07:32:40;22.33;;;15.73;;
58101;SDS011;52034;51.926;6.320;2024-01-10T07:33:46;21.10;;;16.23;;
58101;SDS011;52034;51.926;6.320;2024-01-10T07:34:48;22.50;;;16.92;;
58101;SDS011;52034;51.926;6.320;2024-01-10T07:35:50;20.65;;;16.05;;
58101;SDS011;52034;51.926;6.320;2024-01-10T07:37:55;20.88;;;15.82;;
58101;SDS011;52034;51.926;6.320;2024-01-10T07:38:57;21.88;;;16.48;;
58101;SDS011;52034;51.926;6.320;2024-01-10T07:40:02;23.70;;;16.58;;
58101;SDS011;52034;51.926;6.320;2024-01-10T07:41:06;22.35;;;16.50;;
58101;SDS011;52034;51.926;6.320;2024-01-10T07:42:07;20.40;;;16.50;;
58101;SDS011;52034;51.926;6.320;2024-01-10T07:43:09;20.95;;;16.33;;
58101;SDS011;52034;51.926;6.320;2024-01-10T07:44:12;20.48;;;16.00;;